createdAt,value
2022-08-26T00:00:39.198Z,9.418252
2022-08-26T00:01:39.178Z,9.418229
2022-08-26T00:02:39.346Z,9.418240
2022-08-26T00:03:39.231Z,9.418254
2022-08-26T00:04:39.173Z,9.418313
2022-08-26T00:05:39.158Z,9.418251
2022-08-26T00:06:39.152Z,9.418216
2022-08-26T00:07:39.142Z,9.418269
2022-08-26T00:08:39.150Z,9.418240
2022-08-26T00:09:40.272Z,9.418277
2022-08-26T00:10:39.126Z,9.418263
2022-08-26T00:11:39.107Z,9.418271
2022-08-26T00:12:39.110Z,9.418278
2022-08-26T00:13:39.126Z,9.418237
2022-08-26T00:14:39.101Z,9.418206
2022-08-26T00:15:39.082Z,9.418187
2022-08-26T00:16:40.943Z,9.418181
2022-08-26T00:17:40.401Z,9.418221
2022-08-26T00:18:40.778Z,9.418234
2022-08-26T00:19:39.079Z,9.418228
2022-08-26T00:20:39.049Z,9.418267
2022-08-26T00:21:39.047Z,9.418214
2022-08-26T00:22:39.045Z,9.418218
2022-08-26T00:23:39.038Z,9.418221
2022-08-26T00:24:39.053Z,9.418232
2022-08-26T00:25:39.027Z,9.418249
2022-08-26T00:26:39.018Z,9.418257
2022-08-26T00:27:39.001Z,9.418243
2022-08-26T00:28:38.997Z,9.418280
2022-08-26T00:29:39.010Z,9.418229
2022-08-26T00:30:38.981Z,9.418224
2022-08-26T00:31:39.041Z,9.418254
2022-08-26T00:32:38.974Z,9.418270
2022-08-26T00:33:38.975Z,9.418232
2022-08-26T00:34:38.966Z,9.418306
2022-08-26T00:35:38.950Z,9.418285
2022-08-26T00:36:40.735Z,9.418290
2022-08-26T00:37:38.942Z,9.418290
2022-08-26T00:38:38.917Z,9.418270
2022-08-26T00:39:38.975Z,9.418252
2022-08-26T00:40:38.927Z,9.418240
2022-08-26T00:41:38.904Z,9.418273
2022-08-26T00:42:38.888Z,9.418232
2022-08-26T00:43:47.759Z,9.418303
2022-08-26T00:44:39.889Z,9.418354
2022-08-26T00:45:38.949Z,9.418258
2022-08-26T00:46:38.872Z,9.418258
2022-08-26T00:47:38.868Z,9.418261
2022-08-26T00:48:38.852Z,9.418310
2022-08-26T00:49:38.852Z,9.418275
2022-08-26T00:50:38.848Z,9.418219
2022-08-26T00:51:38.852Z,9.418273
2022-08-26T00:52:38.851Z,9.418306
2022-08-26T00:53:38.824Z,9.418264
2022-08-26T00:54:38.818Z,9.418358
2022-08-26T00:55:38.810Z,9.418337
2022-08-26T00:56:38.830Z,9.418321
2022-08-26T00:57:38.795Z,9.418364
2022-08-26T00:58:38.801Z,9.418327
2022-08-26T00:59:38.973Z,9.418284
2022-08-26T01:00:38.833Z,9.418277
2022-08-26T01:01:38.787Z,9.418243
2022-08-26T01:02:38.804Z,9.418336
2022-08-26T01:03:38.768Z,9.418397
2022-08-26T01:04:38.753Z,9.418352
2022-08-26T01:05:38.739Z,9.418361
2022-08-26T01:06:38.751Z,9.418336
2022-08-26T01:07:38.758Z,9.418364
2022-08-26T01:08:38.723Z,9.418282
2022-08-26T01:09:38.722Z,9.418271
2022-08-26T01:10:38.702Z,9.418265
2022-08-26T01:11:38.706Z,9.418228
2022-08-26T01:12:40.204Z,9.418298
2022-08-26T01:13:38.682Z,9.418234
2022-08-26T01:14:38.679Z,9.418273
2022-08-26T01:15:38.669Z,9.418270
2022-08-26T01:16:38.741Z,9.418267
2022-08-26T01:17:38.658Z,9.418242
2022-08-26T01:18:38.666Z,9.418287
2022-08-26T01:19:38.642Z,9.418267
2022-08-26T01:20:38.639Z,9.418274
2022-08-26T01:21:40.536Z,9.418229
2022-08-26T01:22:38.622Z,9.418246
2022-08-26T01:23:38.622Z,9.418259
2022-08-26T01:24:38.607Z,9.418249
2022-08-26T01:25:38.591Z,9.418274
2022-08-26T01:26:38.602Z,9.418301
2022-08-26T01:27:38.601Z,9.418251
2022-08-26T01:28:38.606Z,9.418280
2022-08-26T01:29:38.602Z,9.418322
2022-08-26T01:30:38.577Z,9.418299
2022-08-26T01:31:39.081Z,9.418246
2022-08-26T01:32:38.963Z,9.418172
2022-08-26T01:33:42.205Z,9.418284
2022-08-26T01:34:38.530Z,9.418337
2022-08-26T01:35:38.535Z,9.418319
2022-08-26T01:36:38.534Z,9.418338
2022-08-26T01:37:39.102Z,9.418224
2022-08-26T01:38:38.514Z,9.418227
2022-08-26T01:39:38.513Z,9.418262
2022-08-26T01:40:38.511Z,9.418354
2022-08-26T01:41:38.498Z,9.418338
2022-08-26T01:42:38.498Z,9.418278
2022-08-26T01:43:38.483Z,9.418347
2022-08-26T01:44:38.470Z,9.418376
2022-08-26T01:45:38.521Z,9.418339
2022-08-26T01:46:38.474Z,9.418361
2022-08-26T01:47:38.475Z,9.418361
2022-08-26T01:48:38.446Z,9.418244
2022-08-26T01:49:38.442Z,9.418282
2022-08-26T01:50:38.433Z,9.418281
2022-08-26T01:51:38.421Z,9.418218
2022-08-26T01:52:38.430Z,9.418272
2022-08-26T01:53:38.414Z,9.418298
2022-08-26T01:54:38.414Z,9.418331
2022-08-26T01:55:38.405Z,9.418222
2022-08-26T01:56:38.394Z,9.418222
2022-08-26T01:57:38.419Z,9.418288
2022-08-26T01:58:38.382Z,9.418230
2022-08-26T01:59:38.370Z,9.418266
2022-08-26T02:00:38.452Z,9.418237
2022-08-26T02:01:38.361Z,9.418311
2022-08-26T02:02:38.373Z,9.418323
2022-08-26T02:03:38.727Z,9.418340
2022-08-26T02:04:38.393Z,9.418381
2022-08-26T02:05:38.344Z,9.418385
2022-08-26T02:06:38.332Z,9.418275
2022-08-26T02:07:38.346Z,9.418281
2022-08-26T02:08:38.341Z,9.418318
2022-08-26T02:09:38.437Z,9.418274
2022-08-26T02:10:38.308Z,9.418261
2022-08-26T02:11:38.309Z,9.418296
2022-08-26T02:12:38.293Z,9.418280
2022-08-26T02:13:38.300Z,9.418231
2022-08-26T02:14:44.009Z,9.418359
2022-08-26T02:15:38.277Z,9.418321
2022-08-26T02:16:38.284Z,9.418323
2022-08-26T02:17:38.264Z,9.418254
2022-08-26T02:18:38.276Z,9.418227
2022-08-26T02:19:38.249Z,9.418237
2022-08-26T02:20:38.252Z,9.418225
2022-08-26T02:21:38.237Z,9.418284
2022-08-26T02:22:38.232Z,9.418345
2022-08-26T02:23:38.254Z,9.418261
2022-08-26T02:24:38.224Z,9.418191
2022-08-26T02:25:38.217Z,9.418189
2022-08-26T02:26:38.213Z,9.418182
2022-08-26T02:27:38.203Z,9.418219
2022-08-26T02:28:38.200Z,9.418271
2022-08-26T02:29:38.189Z,9.418229
2022-08-26T02:30:38.189Z,9.418229
2022-08-26T02:31:38.246Z,9.418257
2022-08-26T02:32:38.171Z,9.418231
2022-08-26T02:33:38.162Z,9.418239
2022-08-26T02:34:39.156Z,9.418259
2022-08-26T02:35:38.176Z,9.418205
2022-08-26T02:36:38.140Z,9.418172
2022-08-26T02:37:38.136Z,9.418236
2022-08-26T02:38:38.132Z,9.418237
2022-08-26T02:39:38.124Z,9.418250
2022-08-26T02:40:38.139Z,9.418284
2022-08-26T02:41:44.920Z,9.418187
2022-08-26T02:42:39.100Z,9.418223
2022-08-26T02:43:38.095Z,9.418229
2022-08-26T02:44:38.091Z,9.418254
2022-08-26T02:45:38.087Z,9.418238
2022-08-26T02:46:38.163Z,9.418229
2022-08-26T02:47:38.068Z,9.418250
2022-08-26T02:48:38.061Z,9.418120
2022-08-26T02:49:38.055Z,9.418267
2022-08-26T02:50:38.052Z,9.418240
2022-08-26T02:51:38.065Z,9.418246
2022-08-26T02:52:38.035Z,9.418243
2022-08-26T02:53:38.031Z,9.418139
2022-08-26T02:54:38.024Z,9.418172
2022-08-26T02:55:38.008Z,9.418132
2022-08-26T02:56:38.031Z,9.418129
2022-08-26T02:57:38.004Z,9.418250
2022-08-26T02:58:37.992Z,9.418240
2022-08-26T02:59:37.992Z,9.418264
2022-08-26T03:00:38.010Z,9.418296
2022-08-26T03:01:38.016Z,9.418296
2022-08-26T03:02:37.981Z,9.418386
2022-08-26T03:03:37.959Z,9.418282
2022-08-26T03:04:37.947Z,9.418226
2022-08-26T03:05:37.943Z,9.418224
2022-08-26T03:06:37.939Z,9.418193
2022-08-26T03:07:37.959Z,9.418198
2022-08-26T03:08:37.923Z,9.418239
2022-08-26T03:09:37.924Z,9.418180
2022-08-26T03:10:37.907Z,9.418265
2022-08-26T03:11:37.978Z,9.418176
2022-08-26T03:12:37.953Z,9.418210
2022-08-26T03:13:37.911Z,9.418198
2022-08-26T03:14:37.903Z,9.418133
2022-08-26T03:15:37.878Z,9.418189
2022-08-26T03:16:37.968Z,9.418284
2022-08-26T03:17:37.884Z,9.418192
2022-08-26T03:18:37.855Z,9.418316
2022-08-26T03:19:37.851Z,9.418369
2022-08-26T03:20:37.847Z,9.418233
2022-08-26T03:21:37.832Z,9.418118
2022-08-26T03:22:37.828Z,9.418057
2022-08-26T03:23:37.840Z,9.418201
2022-08-26T03:24:37.820Z,9.418204
2022-08-26T03:25:37.799Z,9.418304
2022-08-26T03:26:37.808Z,9.418220
2022-08-26T03:27:37.795Z,9.418233
2022-08-26T03:28:37.811Z,9.418099
2022-08-26T03:29:37.819Z,9.418051
2022-08-26T03:30:37.783Z,9.418198
2022-08-26T03:31:37.817Z,9.418056
2022-08-26T03:32:37.774Z,9.418077
2022-08-26T03:33:37.783Z,9.418095
2022-08-26T03:34:37.760Z,9.418112
2022-08-26T03:35:37.751Z,9.418176
2022-08-26T03:36:37.757Z,9.418107
2022-08-26T03:37:37.734Z,9.418103
2022-08-26T03:38:37.740Z,9.418357
2022-08-26T03:39:37.738Z,9.418341
2022-08-26T03:40:37.707Z,9.418248
2022-08-26T03:41:37.711Z,9.418295
2022-08-26T03:42:37.702Z,9.418230
2022-08-26T03:43:37.690Z,9.418262
2022-08-26T03:44:37.690Z,9.418261
2022-08-26T03:45:37.694Z,9.418298
2022-08-26T03:46:37.733Z,9.418381
2022-08-26T03:47:37.672Z,9.418322
2022-08-26T03:48:37.663Z,9.418365
2022-08-26T03:49:37.671Z,9.418388
2022-08-26T03:50:37.658Z,9.418230
2022-08-26T03:51:38.868Z,9.418263
2022-08-26T03:52:41.802Z,9.418192
2022-08-26T03:53:39.627Z,9.418295
2022-08-26T03:54:37.623Z,9.418192
2022-08-26T03:55:37.623Z,9.418243
2022-08-26T03:56:37.607Z,9.418303
2022-08-26T03:57:37.603Z,9.418240
2022-08-26T03:58:37.598Z,9.418210
2022-08-26T03:59:37.575Z,9.418281
2022-08-26T04:00:37.595Z,9.418246
2022-08-26T04:01:37.658Z,9.418240
2022-08-26T04:02:37.589Z,9.418283
2022-08-26T04:03:37.570Z,9.418243
2022-08-26T04:04:37.558Z,9.418256
2022-08-26T04:05:37.559Z,9.418190
2022-08-26T04:06:37.547Z,9.418394
2022-08-26T04:07:37.534Z,9.418355
2022-08-26T04:08:37.546Z,9.418271
2022-08-26T04:09:37.530Z,9.418299
2022-08-26T04:10:37.527Z,9.418316
2022-08-26T04:11:38.620Z,9.418304
2022-08-26T04:12:37.507Z,9.418181
2022-08-26T04:13:37.514Z,9.418156
2022-08-26T04:14:37.779Z,9.418207
2022-08-26T04:15:37.491Z,9.418234
2022-08-26T04:16:37.474Z,9.418287
2022-08-26T04:17:37.458Z,9.418295
2022-08-26T04:18:37.467Z,9.418331
2022-08-26T04:19:38.470Z,9.418256
2022-08-26T04:20:37.434Z,9.418039
2022-08-26T04:21:37.435Z,9.418240
2022-08-26T04:22:37.435Z,9.418336
2022-08-26T04:23:47.317Z,9.418350
2022-08-26T04:24:38.451Z,9.418392
2022-08-26T04:25:37.406Z,9.418426
2022-08-26T04:26:39.498Z,9.418354
2022-08-26T04:27:38.402Z,9.418378
2022-08-26T04:28:37.398Z,9.418404
2022-08-26T04:29:37.391Z,9.418355
2022-08-26T04:30:37.394Z,9.418259
2022-08-26T04:31:37.445Z,9.418303
2022-08-26T04:32:37.358Z,9.418293
2022-08-26T04:33:37.350Z,9.418269
2022-08-26T04:34:37.371Z,9.418305
2022-08-26T04:35:37.347Z,9.418298
2022-08-26T04:36:37.540Z,9.418302
2022-08-26T04:37:37.334Z,9.418307
2022-08-26T04:38:37.321Z,9.418280
2022-08-26T04:39:37.318Z,9.418246
2022-08-26T04:40:37.310Z,9.418305
2022-08-26T04:41:37.295Z,9.418370
2022-08-26T04:42:37.311Z,9.418339
2022-08-26T04:43:37.282Z,9.418295
2022-08-26T04:44:37.278Z,9.418304
2022-08-26T04:45:37.382Z,9.418271
2022-08-26T04:46:39.975Z,9.418262
2022-08-26T04:47:38.292Z,9.418373
2022-08-26T04:48:37.263Z,9.418274
2022-08-26T04:49:37.258Z,9.418345
2022-08-26T04:50:37.243Z,9.418352
2022-08-26T04:51:37.233Z,9.418363
2022-08-26T04:52:37.243Z,9.418259
2022-08-26T04:53:37.214Z,9.418282
2022-08-26T04:54:37.210Z,9.418288
2022-08-26T04:55:39.700Z,9.418245
2022-08-26T04:56:38.198Z,9.418257
2022-08-26T04:57:37.187Z,9.418257
2022-08-26T04:58:37.206Z,9.418261
2022-08-26T04:59:39.331Z,9.418292
2022-08-26T05:00:38.172Z,9.418299
2022-08-26T05:01:39.687Z,9.418275
2022-08-26T05:02:37.155Z,9.418225
2022-08-26T05:03:37.185Z,9.418186
2022-08-26T05:04:37.162Z,9.418231
2022-08-26T05:05:37.144Z,9.418224
2022-08-26T05:06:37.295Z,9.418244
2022-08-26T05:07:37.122Z,9.418240
2022-08-26T05:08:37.119Z,9.418269
2022-08-26T05:09:37.154Z,9.418428
2022-08-26T05:10:37.112Z,9.418370
2022-08-26T05:11:37.094Z,9.418321
2022-08-26T05:12:37.081Z,9.418312
2022-08-26T05:13:37.087Z,9.418331
2022-08-26T05:14:37.093Z,9.418360
2022-08-26T05:15:37.112Z,9.418129
2022-08-26T05:16:37.056Z,9.418239
2022-08-26T05:17:37.045Z,9.418200
2022-08-26T05:18:37.046Z,9.418326
2022-08-26T05:19:37.042Z,9.418316
2022-08-26T05:20:37.046Z,9.418401
2022-08-26T05:21:37.034Z,9.418291
2022-08-26T05:22:37.018Z,9.418283
2022-08-26T05:23:37.006Z,9.418313
2022-08-26T05:24:37.018Z,9.418151
2022-08-26T05:25:37.035Z,9.418192
2022-08-26T05:26:37.003Z,9.418268
2022-08-26T05:27:36.990Z,9.418292
2022-08-26T05:28:36.982Z,9.418295
2022-08-26T05:29:36.974Z,9.418243
2022-08-26T05:30:37.987Z,9.418267
2022-08-26T05:31:36.963Z,9.418099
2022-08-26T05:32:36.958Z,9.418103
2022-08-26T05:33:36.962Z,9.418200
2022-08-26T05:34:36.934Z,9.418186
2022-08-26T05:35:36.934Z,9.418197
2022-08-26T05:36:37.130Z,9.418201
2022-08-26T05:37:36.919Z,9.418173
2022-08-26T05:38:36.914Z,9.418180
2022-08-26T05:39:36.923Z,9.418127
2022-08-26T05:40:36.953Z,9.418163
2022-08-26T05:41:38.446Z,9.418143
2022-08-26T05:42:36.886Z,9.418181
2022-08-26T05:43:36.874Z,9.418213
2022-08-26T05:44:55.703Z,9.418218
2022-08-26T05:45:40.226Z,9.418234
2022-08-26T05:46:36.907Z,9.418239
2022-08-26T05:47:36.868Z,9.418268
2022-08-26T05:48:36.847Z,9.418221
2022-08-26T05:49:36.842Z,9.418173
2022-08-26T05:50:37.826Z,9.418148
2022-08-26T05:51:36.834Z,9.418287
2022-08-26T05:52:36.843Z,9.418343
2022-08-26T05:53:36.813Z,9.418260
2022-08-26T05:54:36.814Z,9.418249
2022-08-26T05:55:36.803Z,9.418196
2022-08-26T05:56:36.790Z,9.418211
2022-08-26T05:57:40.463Z,9.418252
2022-08-26T05:58:38.774Z,9.418373
2022-08-26T05:59:36.769Z,9.418305
2022-08-26T06:00:36.765Z,9.418402
2022-08-26T06:01:36.783Z,9.418295
2022-08-26T06:02:36.789Z,9.418272
2022-08-26T06:03:36.753Z,9.418211
2022-08-26T06:04:36.739Z,9.418235
2022-08-26T06:05:39.182Z,9.418232
2022-08-26T06:06:37.726Z,9.418154
2022-08-26T06:07:36.726Z,9.418238
2022-08-26T06:08:36.735Z,9.418059
2022-08-26T06:09:36.726Z,9.417948
2022-08-26T06:10:36.697Z,9.418020
2022-08-26T06:11:36.714Z,9.418020
2022-08-26T06:12:36.673Z,9.418122
2022-08-26T06:13:36.682Z,9.418093
2022-08-26T06:14:36.681Z,9.418235
2022-08-26T06:15:37.745Z,9.418186
2022-08-26T06:16:36.655Z,9.418224
2022-08-26T06:17:36.654Z,9.418221
2022-08-26T06:18:36.634Z,9.418242
2022-08-26T06:19:36.661Z,9.418055
2022-08-26T06:20:36.637Z,9.418236
2022-08-26T06:21:36.626Z,9.418098
2022-08-26T06:22:36.617Z,9.418139
2022-08-26T06:23:36.617Z,9.418043
2022-08-26T06:24:36.597Z,9.418057
2022-08-26T06:25:36.605Z,9.418092
2022-08-26T06:26:36.700Z,9.418208
2022-08-26T06:27:36.581Z,9.418160
2022-08-26T06:28:36.569Z,9.418114
2022-08-26T06:29:36.572Z,9.418065
2022-08-26T06:30:36.569Z,9.418172
2022-08-26T06:31:36.557Z,9.418198
2022-08-26T06:32:36.549Z,9.418010
2022-08-26T06:33:36.558Z,9.418065
2022-08-26T06:34:36.521Z,9.418055
2022-08-26T06:35:36.541Z,9.418084
2022-08-26T06:36:36.522Z,9.418030
2022-08-26T06:37:36.517Z,9.418069
2022-08-26T06:38:36.552Z,9.418151
2022-08-26T06:39:36.507Z,9.418138
2022-08-26T06:40:36.527Z,9.418159
2022-08-26T06:41:39.085Z,9.418100
2022-08-26T06:42:38.481Z,9.418092
2022-08-26T06:43:36.474Z,9.417934
2022-08-26T06:44:36.469Z,9.417940
2022-08-26T06:45:36.461Z,9.418038
2022-08-26T06:46:36.554Z,9.417901
2022-08-26T06:47:36.441Z,9.417997
2022-08-26T06:48:36.450Z,9.418088
2022-08-26T06:49:36.501Z,9.418092
2022-08-26T06:50:36.426Z,9.417924
2022-08-26T06:51:36.465Z,9.417701
2022-08-26T06:52:36.429Z,9.417926
2022-08-26T06:53:36.413Z,9.418048
2022-08-26T06:54:36.401Z,9.418061
2022-08-26T06:55:36.400Z,9.418221
2022-08-26T06:56:36.385Z,9.418177
2022-08-26T06:57:37.753Z,9.418264
2022-08-26T06:58:36.377Z,9.418238
2022-08-26T06:59:36.389Z,9.418165
2022-08-26T07:00:36.369Z,9.418155
2022-08-26T07:01:36.403Z,9.418161
2022-08-26T07:02:36.368Z,9.418218
2022-08-26T07:03:39.494Z,9.418104
2022-08-26T07:04:36.357Z,9.418094
2022-08-26T07:05:36.325Z,9.417929
2022-08-26T07:06:36.327Z,9.418158
2022-08-26T07:07:36.331Z,9.418241
2022-08-26T07:08:36.311Z,9.418216
2022-08-26T07:09:36.308Z,9.418173
2022-08-26T07:10:36.307Z,9.418152
2022-08-26T07:11:37.295Z,9.418151
2022-08-26T07:12:36.326Z,9.418183
2022-08-26T07:13:36.275Z,9.418139
2022-08-26T07:14:37.275Z,9.418107
2022-08-26T07:15:36.295Z,9.418217
2022-08-26T07:16:36.255Z,9.418116
2022-08-26T07:17:36.282Z,9.418202
2022-08-26T07:18:36.243Z,9.418138
2022-08-26T07:19:36.235Z,9.418088
2022-08-26T07:20:36.223Z,9.418173
2022-08-26T07:21:36.227Z,9.418177
2022-08-26T07:22:36.222Z,9.418156
2022-08-26T07:23:36.227Z,9.418211
2022-08-26T07:24:36.212Z,9.418192
2022-08-26T07:25:36.211Z,9.418168
2022-08-26T07:26:36.221Z,9.418136
2022-08-26T07:27:36.189Z,9.418182
2022-08-26T07:28:36.223Z,9.418162
2022-08-26T07:29:36.231Z,9.418218
2022-08-26T07:30:36.202Z,9.418154
2022-08-26T07:31:39.257Z,9.418137
2022-08-26T07:32:36.152Z,9.418140
2022-08-26T07:33:36.135Z,9.418206
2022-08-26T07:34:36.142Z,9.418173
2022-08-26T07:35:36.120Z,9.418129
2022-08-26T07:36:36.122Z,9.418238
2022-08-26T07:37:39.320Z,9.418274
2022-08-26T07:38:36.106Z,9.418154
2022-08-26T07:39:36.129Z,9.418277
2022-08-26T07:40:36.117Z,9.418349
2022-08-26T07:41:36.103Z,9.418198
2022-08-26T07:42:36.094Z,9.418181
2022-08-26T07:43:36.074Z,9.418204
2022-08-26T07:44:36.067Z,9.418221
2022-08-26T07:45:36.086Z,9.418196
2022-08-26T07:46:36.059Z,9.418282
2022-08-26T07:47:36.043Z,9.418244
2022-08-26T07:48:36.051Z,9.418231
2022-08-26T07:49:36.091Z,9.418283
2022-08-26T07:50:49.294Z,9.418237
2022-08-26T07:51:37.024Z,9.418258
2022-08-26T07:52:36.026Z,9.418242
2022-08-26T07:53:36.035Z,9.418227
2022-08-26T07:54:36.014Z,9.418250
2022-08-26T07:55:36.013Z,9.418230
2022-08-26T07:56:35.991Z,9.418175
2022-08-26T07:57:35.979Z,9.418235
2022-08-26T07:58:35.984Z,9.418201
2022-08-26T07:59:35.978Z,9.418239
2022-08-26T08:00:35.967Z,9.418191
2022-08-26T08:01:35.976Z,9.418206
2022-08-26T08:02:35.949Z,9.418218
2022-08-26T08:03:35.947Z,9.418190
2022-08-26T08:04:36.001Z,9.418198
2022-08-26T08:05:35.945Z,9.418234
2022-08-26T08:06:35.971Z,9.418272
2022-08-26T08:07:44.479Z,9.418303
2022-08-26T08:08:36.918Z,9.418258
2022-08-26T08:09:35.899Z,9.418234
2022-08-26T08:10:35.918Z,9.418240
2022-08-26T08:11:35.894Z,9.418210
2022-08-26T08:12:35.903Z,9.418224
2022-08-26T08:13:35.874Z,9.418209
2022-08-26T08:14:35.870Z,9.418180
2022-08-26T08:15:35.862Z,9.418197
2022-08-26T08:16:39.111Z,9.418243
2022-08-26T08:17:36.868Z,9.418271
2022-08-26T08:18:35.837Z,9.418251
2022-08-26T08:19:39.011Z,9.418255
2022-08-26T08:20:35.835Z,9.418236
2022-08-26T08:21:35.842Z,9.418260
2022-08-26T08:22:35.826Z,9.418234
2022-08-26T08:23:35.819Z,9.418219
2022-08-26T08:24:35.802Z,9.418182
2022-08-26T08:25:35.802Z,9.418264
2022-08-26T08:26:35.797Z,9.418273
2022-08-26T08:27:35.806Z,9.418272
2022-08-26T08:28:35.773Z,9.418232
2022-08-26T08:29:35.773Z,9.418183
2022-08-26T08:30:35.828Z,9.418242
2022-08-26T08:32:37.767Z,9.418265
2022-08-26T08:33:35.761Z,9.418302
2022-08-26T08:34:35.782Z,9.418279
2022-08-26T08:35:35.762Z,9.418283
2022-08-26T08:36:36.214Z,9.418251
2022-08-26T08:37:35.713Z,9.418321
2022-08-26T08:38:35.714Z,9.418279
2022-08-26T08:39:35.721Z,9.418259
2022-08-26T08:40:35.820Z,9.418276
2022-08-26T08:41:36.709Z,9.418275
2022-08-26T08:42:35.689Z,9.418258
2022-08-26T08:43:37.818Z,9.418269
2022-08-26T08:44:35.700Z,9.418244
2022-08-26T08:45:37.141Z,9.418268
2022-08-26T08:46:36.700Z,9.418297
2022-08-26T08:47:35.649Z,9.418280
2022-08-26T08:48:35.649Z,9.418284
2022-08-26T08:49:35.644Z,9.418301
2022-08-26T08:50:35.645Z,9.418254
2022-08-26T08:51:35.625Z,9.418295
2022-08-26T08:52:36.642Z,9.418276
2022-08-26T08:53:35.615Z,9.418200
2022-08-26T08:54:35.613Z,9.418200
2022-08-26T08:55:35.625Z,9.418280
2022-08-26T08:56:35.601Z,9.418255
2022-08-26T08:57:35.608Z,9.418212
2022-08-26T08:58:35.601Z,9.418262
2022-08-26T08:59:35.578Z,9.418308
2022-08-26T09:00:39.155Z,9.418282
2022-08-26T09:01:36.603Z,9.418245
2022-08-26T09:02:35.605Z,9.418297
2022-08-26T09:03:35.566Z,9.418311
2022-08-26T09:04:35.552Z,9.418332
2022-08-26T09:05:35.551Z,9.418328
2022-08-26T09:06:35.550Z,9.418310
2022-08-26T09:07:36.757Z,9.418274
2022-08-26T09:08:36.595Z,9.418326
2022-08-26T09:09:35.525Z,9.418319
2022-08-26T09:10:35.521Z,9.418233
2022-08-26T09:11:35.500Z,9.418274
2022-08-26T09:12:35.508Z,9.418212
2022-08-26T09:13:35.518Z,9.418225
2022-08-26T09:14:35.489Z,9.418271
2022-08-26T09:15:35.494Z,9.418283
2022-08-26T09:16:35.566Z,9.418217
2022-08-26T09:17:35.472Z,9.418307
2022-08-26T09:18:35.481Z,9.418278
2022-08-26T09:19:35.464Z,9.418249
2022-08-26T09:20:35.466Z,9.418269
2022-08-26T09:21:35.465Z,9.418275
2022-08-26T09:22:35.454Z,9.418265
2022-08-26T09:23:35.942Z,9.418246
2022-08-26T09:24:39.571Z,9.418192
2022-08-26T09:25:37.432Z,9.418195
2022-08-26T09:26:35.430Z,9.418204
2022-08-26T09:27:35.416Z,9.418205
2022-08-26T09:28:35.417Z,9.418248
2022-08-26T09:29:35.436Z,9.418198
2022-08-26T09:30:35.452Z,9.418169
2022-08-26T09:31:35.532Z,9.418199
2022-08-26T09:32:35.389Z,9.418202
2022-08-26T09:33:35.387Z,9.418289
2022-08-26T09:34:35.384Z,9.418256
2022-08-26T09:35:35.394Z,9.418292
2022-08-26T09:36:39.200Z,9.418284
2022-08-26T09:37:36.434Z,9.418242
2022-08-26T09:38:35.358Z,9.418225
2022-08-26T09:39:35.366Z,9.418261
2022-08-26T09:40:35.494Z,9.418231
2022-08-26T09:41:35.365Z,9.418257
2022-08-26T09:42:35.369Z,9.418189
2022-08-26T09:43:35.419Z,9.418280
2022-08-26T09:44:35.349Z,9.418197
2022-08-26T09:45:35.365Z,9.418242
2022-08-26T09:46:35.451Z,9.418228
2022-08-26T09:47:35.324Z,9.418262
2022-08-26T09:48:36.037Z,9.418219
2022-08-26T09:49:36.371Z,9.418248
2022-08-26T09:50:36.320Z,9.418254
2022-08-26T09:51:35.320Z,9.418351
2022-08-26T09:52:35.305Z,9.418308
2022-08-26T09:53:35.316Z,9.418257
2022-08-26T09:54:35.297Z,9.418150
2022-08-26T09:55:35.285Z,9.418226
2022-08-26T09:56:35.297Z,9.418261
2022-08-26T09:57:35.283Z,9.418103
2022-08-26T09:58:35.277Z,9.418101
2022-08-26T09:59:35.322Z,9.418064
2022-08-26T10:00:35.273Z,9.418092
2022-08-26T10:01:35.363Z,9.418207
2022-08-26T10:02:35.262Z,9.418294
2022-08-26T10:03:35.263Z,9.418115
2022-08-26T10:04:35.299Z,9.418275
2022-08-26T10:05:35.277Z,9.418306
2022-08-26T10:06:35.241Z,9.418246
2022-08-26T10:07:36.232Z,9.418166
2022-08-26T10:08:35.233Z,9.418151
2022-08-26T10:09:35.225Z,9.418271
2022-08-26T10:10:35.230Z,9.418292
2022-08-26T10:11:35.209Z,9.418211
2022-08-26T10:12:35.214Z,9.418134
2022-08-26T10:13:35.197Z,9.418322
2022-08-26T10:14:35.218Z,9.418275
2022-08-26T10:15:35.197Z,9.418428
2022-08-26T10:16:35.259Z,9.418316
2022-08-26T10:17:35.173Z,9.418310
2022-08-26T10:18:35.184Z,9.418244
2022-08-26T10:19:41.770Z,9.418209
2022-08-26T10:20:36.180Z,9.418246
2022-08-26T10:21:35.249Z,9.418188
2022-08-26T10:22:35.160Z,9.418238
2022-08-26T10:23:35.157Z,9.418221
2022-08-26T10:24:35.177Z,9.418308
2022-08-26T10:25:35.257Z,9.418270
2022-08-26T10:26:35.144Z,9.418110
2022-08-26T10:27:35.137Z,9.418429
2022-08-26T10:28:35.145Z,9.418225
2022-08-26T10:29:35.139Z,9.418175
2022-08-26T10:30:35.145Z,9.418272
2022-08-26T10:31:38.235Z,9.418242
2022-08-26T10:32:36.113Z,9.418114
2022-08-26T10:33:36.138Z,9.418277
2022-08-26T10:34:35.118Z,9.418310
2022-08-26T10:35:36.121Z,9.418213
2022-08-26T10:36:43.083Z,9.418159
2022-08-26T10:37:37.162Z,9.418192
2022-08-26T10:38:35.089Z,9.418047
2022-08-26T10:39:35.109Z,9.418190
2022-08-26T10:40:35.184Z,9.418184
2022-08-26T10:41:35.082Z,9.418157
2022-08-26T10:42:35.109Z,9.418202
2022-08-26T10:43:35.088Z,9.418213
2022-08-26T10:44:35.098Z,9.418327
2022-08-26T10:45:35.116Z,9.418270
2022-08-26T10:46:35.090Z,9.418230
2022-08-26T10:47:35.062Z,9.418255
2022-08-26T10:48:35.239Z,9.418220
2022-08-26T10:49:35.057Z,9.418198
2022-08-26T10:50:35.053Z,9.418237
2022-08-26T10:51:35.061Z,9.418303
2022-08-26T10:52:35.053Z,9.418231
2022-08-26T10:53:35.069Z,9.418229
2022-08-26T10:54:35.045Z,9.418386
2022-08-26T10:55:35.185Z,9.418400
2022-08-26T10:56:35.034Z,9.418290
2022-08-26T10:57:35.038Z,9.418171
2022-08-26T10:58:35.037Z,9.418276
2022-08-26T10:59:35.046Z,9.418241
2022-08-26T11:00:35.024Z,9.418239
2022-08-26T11:01:35.052Z,9.418200
2022-08-26T11:02:36.054Z,9.418171
2022-08-26T11:03:35.021Z,9.418082
2022-08-26T11:04:35.288Z,9.418038
2022-08-26T11:05:35.004Z,9.418152
2022-08-26T11:06:36.995Z,9.418143
2022-08-26T11:07:35.044Z,9.418133
2022-08-26T11:08:34.989Z,9.418236
2022-08-26T11:09:35.002Z,9.418073
2022-08-26T11:10:35.022Z,9.418273
2022-08-26T11:11:34.984Z,9.418058
2022-08-26T11:12:35.009Z,9.418126
2022-08-26T11:13:38.705Z,9.418095
2022-08-26T11:14:45.990Z,9.418062
2022-08-26T11:15:36.009Z,9.418172
2022-08-26T11:16:35.019Z,9.418264
2022-08-26T11:17:34.995Z,9.418405
2022-08-26T11:18:34.978Z,9.418265
2022-08-26T11:19:57.106Z,9.417994
2022-08-26T11:20:36.978Z,9.418276
2022-08-26T11:21:35.975Z,9.418192
2022-08-26T11:22:34.970Z,9.418192
2022-08-26T11:23:34.964Z,9.418227
2022-08-26T11:24:34.961Z,9.418236
2022-08-26T11:25:34.948Z,9.418261
2022-08-26T11:26:36.289Z,9.418275
2022-08-26T11:27:35.969Z,9.418190
2022-08-26T11:28:34.950Z,9.418181
2022-08-26T11:29:34.936Z,9.418113
2022-08-26T11:30:34.940Z,9.418159
2022-08-26T11:31:34.984Z,9.418212
2022-08-26T11:32:34.958Z,9.418267
2022-08-26T11:33:34.937Z,9.418239
2022-08-26T11:34:34.936Z,9.418225
2022-08-26T11:35:34.932Z,9.418159
2022-08-26T11:36:34.912Z,9.418232
2022-08-26T11:37:34.933Z,9.418260
2022-08-26T11:38:34.930Z,9.418228
2022-08-26T11:39:36.845Z,9.418204
2022-08-26T11:40:34.926Z,9.418250
2022-08-26T11:41:34.904Z,9.418238
2022-08-26T11:42:34.926Z,9.418277
2022-08-26T11:43:34.918Z,9.418296
2022-08-26T11:44:34.903Z,9.418188
2022-08-26T11:45:34.931Z,9.418102